logo
Rechercher aéroport 
image banner adimage banner adimage banner ad
image banner ad

YXLU - Launceston General Hospital

Situé à , Australia

ICAO - , IATA -

Données fournies par Airmate  

Information générale

Coordonnées: S41°26'51" E147°8'31"
Élévation : 108 feet MSL.
 
Voir autres Aéroports à Tasmania

Données opérationnelles

Special qualification required
Heure actuelle UTC:
Heure actuelle locale:
Météo à : YMLT - Launceston ( 12 km )
METAR: YMLT 220730Z AUTO 32008KT 9999 // OVC042 12/09 Q1023 RF00.0/000.0
TAF: TAF AMD YMLT 220526Z 2206/2306 34010KT 9999 BKN030 FM221500 34005KT 9999 FEW030 FM230200 34008KT 9999 SCT030 FM230500 16010KT 9999 -SHRA BKN030 PROB30 2216/2222 0500 FG
Voir NOTAMs / SUP AIP / TFR affectant cet aéroport [VIEW]
Fréquences de communication: [VIEW]

Pistes:

Coordonnées de l'aéroport

Adresse: Australia

Vue satellite de YXLU